Time;durP1;ratioP1;P1;durP2;ratioP2;P2;SDS_P1;SDS_P2;PMS_P1;PMS_P2;Temp;Humidity;BMP_temperature;BMP_pressure;BME280_temperature;BME280_humidity;BME280_pressure;Samples;Min_cycle;Max_cycle;Signal;HPM_P1;HPM_P2
2021/10/04 00:01:28;;;;;;;3.20;0.55;;;15.00;59.50;;;;;;5038880;28;20120;-77
2021/10/04 00:03:55;;;;;;;0.65;0.35;;;15.00;59.50;;;;;;5031921;28;20021;-76
2021/10/04 00:06:21;;;;;;;1.38;0.60;;;15.00;59.60;;;;;;5036028;28;20524;-76
2021/10/04 00:08:48;;;;;;;1.15;0.40;;;15.00;59.60;;;;;;5037378;28;20511;-76
2021/10/04 00:11:15;;;;;;;4.70;0.77;;;15.00;59.60;;;;;;5042584;28;20048;-78
2021/10/04 00:13:42;;;;;;;1.67;0.77;;;15.00;60.30;;;;;;5035539;28;20022;-78
2021/10/04 00:16:08;;;;;;;1.88;0.38;;;15.00;59.90;;;;;;5040306;28;20718;-78
2021/10/04 00:18:35;;;;;;;1.13;0.35;;;15.00;59.70;;;;;;5034859;28;20377;-78
2021/10/04 00:21:01;;;;;;;0.50;0.20;;;15.10;59.70;;;;;;5034097;28;20029;-76
2021/10/04 00:23:28;;;;;;;0.30;0.30;;;15.00;59.70;;;;;;5037883;28;20029;-77
2021/10/04 00:25:54;;;;;;;5.82;0.50;;;15.00;59.70;;;;;;5033111;28;20024;-77
2021/10/04 00:28:21;;;;;;;6.30;0.95;;;15.00;59.60;;;;;;5038809;28;20017;-78
2021/10/04 00:30:48;;;;;;;2.15;0.40;;;15.00;59.90;;;;;;5038186;28;20052;-78
2021/10/04 00:33:14;;;;;;;0.93;0.40;;;15.00;59.70;;;;;;5037909;28;20021;-76
2021/10/04 00:35:41;;;;;;;4.82;0.57;;;15.00;59.60;;;;;;5031572;28;20017;-78
2021/10/04 00:38:07;;;;;;;4.10;0.70;;;15.00;59.60;;;;;;5032994;28;20043;-78
2021/10/04 00:40:35;;;;;;;2.90;0.50;;;15.00;59.70;;;;;;5033148;28;20179;-76
2021/10/04 00:43:02;;;;;;;2.15;0.50;;;15.00;59.70;;;;;;5033798;28;20010;-77
2021/10/04 00:45:30;;;;;;;4.57;0.45;;;15.00;59.70;;;;;;5034912;28;20017;-76
2021/10/04 00:47:57;;;;;;;2.47;1.30;;;14.90;59.60;;;;;;5033446;28;20079;-75
2021/10/04 00:50:25;;;;;;;1.17;0.55;;;14.90;59.60;;;;;;5034623;28;20032;-76
2021/10/04 00:52:52;;;;;;;4.18;1.25;;;14.90;59.70;;;;;;5035621;28;20060;-77
2021/10/04 00:55:19;;;;;;;0.95;0.38;;;14.90;59.90;;;;;;5037258;28;20021;-76
2021/10/04 00:57:46;;;;;;;1.38;0.38;;;14.90;59.90;;;;;;5035134;28;20025;-77
2021/10/04 01:00:17;;;;;;;2.20;0.50;;;14.90;60.20;;;;;;5031303;28;20030;-77
2021/10/04 01:02:43;;;;;;;4.22;0.70;;;14.90;60.40;;;;;;5034831;28;20028;-76
2021/10/04 01:05:11;;;;;;;2.53;1.05;;;14.90;60.70;;;;;;5033032;28;20017;-77
2021/10/04 01:07:38;;;;;;;0.82;0.35;;;14.90;60.70;;;;;;5031345;28;20468;-76
2021/10/04 01:10:06;;;;;;;4.85;0.55;;;14.80;60.90;;;;;;5029971;28;20017;-76
2021/10/04 01:12:32;;;;;;;6.07;0.60;;;14.80;60.80;;;;;;5030971;28;20043;-77
2021/10/04 01:14:59;;;;;;;1.85;0.55;;;14.80;60.80;;;;;;5034554;28;20045;-77
2021/10/04 01:17:25;;;;;;;0.43;0.30;;;14.80;60.70;;;;;;5030532;28;20022;-76
2021/10/04 01:19:52;;;;;;;1.42;0.90;;;14.80;60.70;;;;;;5032222;28;20017;-77
2021/10/04 01:22:18;;;;;;;3.63;0.60;;;14.80;60.60;;;;;;5034160;28;20029;-76
2021/10/04 01:24:45;;;;;;;5.28;0.60;;;14.80;60.60;;;;;;5031831;28;20021;-77
2021/10/04 01:27:11;;;;;;;3.72;0.60;;;14.80;60.60;;;;;;5033146;28;20045;-77
2021/10/04 01:29:38;;;;;;;3.28;0.90;;;14.80;60.60;;;;;;5036224;28;20021;-77
2021/10/04 01:32:05;;;;;;;1.35;0.63;;;14.80;60.70;;;;;;5030606;28;20094;-77
2021/10/04 01:34:32;;;;;;;3.70;0.50;;;14.80;60.60;;;;;;5031334;28;20064;-77
2021/10/04 01:36:58;;;;;;;1.35;0.30;;;14.80;60.70;;;;;;5030795;28;20096;-77
2021/10/04 01:39:25;;;;;;;1.02;0.45;;;14.70;60.70;;;;;;5031189;28;20403;-77
2021/10/04 01:41:51;;;;;;;3.05;1.48;;;14.70;60.90;;;;;;5032174;28;20073;-77
2021/10/04 01:44:18;;;;;;;2.40;0.80;;;14.60;60.80;;;;;;5032369;28;20432;-77
2021/10/04 01:46:44;;;;;;;3.88;0.40;;;14.70;61.00;;;;;;5031802;28;20029;-77
2021/10/04 01:49:11;;;;;;;0.50;0.20;;;14.60;61.00;;;;;;5034766;28;20029;-77
2021/10/04 01:51:37;;;;;;;2.70;0.28;;;14.60;61.20;;;;;;5038303;28;20040;-76
2021/10/04 01:54:04;;;;;;;1.23;0.35;;;14.60;61.20;;;;;;5030169;28;20083;-76
2021/10/04 01:56:30;;;;;;;3.22;0.47;;;14.50;61.20;;;;;;5030868;28;20025;-77
2021/10/04 01:58:57;;;;;;;0.75;0.38;;;14.60;61.20;;;;;;5032926;28;20041;-77
2021/10/04 02:01:23;;;;;;;3.83;0.70;;;14.50;61.20;;;;;;5030841;28;20107;-77
2021/10/04 02:03:51;;;;;;;2.08;0.43;;;14.60;61.40;;;;;;5034081;28;20025;-77
2021/10/04 02:06:18;;;;;;;1.27;0.50;;;14.50;61.40;;;;;;5032847;28;20021;-77
2021/10/04 02:08:45;;;;;;;1.83;0.80;;;14.50;61.40;;;;;;5030353;28;20075;-75
2021/10/04 02:11:11;;;;;;;2.35;0.40;;;14.50;61.60;;;;;;5033193;28;20458;-76
2021/10/04 02:13:38;;;;;;;1.70;0.57;;;14.50;61.60;;;;;;5031647;28;20021;-76
2021/10/04 02:16:05;;;;;;;2.00;0.70;;;14.40;61.40;;;;;;5050582;28;20021;-75
2021/10/04 02:18:31;;;;;;;0.95;0.65;;;14.40;61.40;;;;;;5031832;28;20529;-76
2021/10/04 02:20:58;;;;;;;3.03;0.50;;;14.40;60.90;;;;;;5033068;28;20030;-77
2021/10/04 02:23:24;;;;;;;4.90;0.68;;;14.50;60.60;;;;;;5032365;28;20021;-76
2021/10/04 02:25:54;;;;;;;1.38;0.40;;;14.50;60.50;;;;;;5031921;28;20434;-76
2021/10/04 02:28:21;;;;;;;1.42;0.45;;;14.40;60.60;;;;;;5030731;28;20438;-76
2021/10/04 02:30:49;;;;;;;1.30;0.40;;;14.40;60.70;;;;;;5030458;28;20021;-75
2021/10/04 02:33:15;;;;;;;2.30;0.50;;;14.50;60.80;;;;;;5033165;28;20052;-77
2021/10/04 02:35:42;;;;;;;2.72;0.60;;;14.50;60.30;;;;;;5029563;28;20044;-76
2021/10/04 02:38:09;;;;;;;1.48;0.43;;;14.40;60.20;;;;;;5033534;28;20025;-76
2021/10/04 02:40:36;;;;;;;0.95;0.20;;;14.40;60.30;;;;;;5030515;28;20025;-76
2021/10/04 02:43:02;;;;;;;2.30;0.63;;;14.40;60.20;;;;;;5035654;28;20040;-76
2021/10/04 02:45:29;;;;;;;1.58;0.55;;;14.40;60.30;;;;;;5035379;28;20078;-75
2021/10/04 02:47:59;;;;;;;1.02;0.40;;;14.40;60.10;;;;;;5031295;28;20496;-78
2021/10/04 02:50:27;;;;;;;3.30;0.60;;;14.40;60.10;;;;;;5030986;28;20028;-75
2021/10/04 02:52:54;;;;;;;1.48;0.95;;;14.40;60.20;;;;;;5029866;28;20025;-77
2021/10/04 02:55:20;;;;;;;0.90;0.45;;;14.40;60.10;;;;;;5032791;28;20061;-76
2021/10/04 02:57:47;;;;;;;1.60;0.50;;;14.30;60.00;;;;;;5030125;28;20069;-75
2021/10/04 03:00:15;;;;;;;1.10;0.40;;;14.40;59.90;;;;;;5035076;28;20034;-75
2021/10/04 03:02:42;;;;;;;3.60;0.60;;;14.30;59.90;;;;;;5032593;28;20020;-77
2021/10/04 03:05:09;;;;;;;0.70;0.35;;;14.40;59.90;;;;;;5034065;28;20048;-75
2021/10/04 03:07:36;;;;;;;1.50;0.43;;;14.40;59.90;;;;;;5033519;28;20469;-77
2021/10/04 03:10:03;;;;;;;1.75;0.63;;;14.40;60.10;;;;;;5031847;28;20022;-75
2021/10/04 03:12:30;;;;;;;2.92;0.50;;;14.40;60.10;;;;;;5030186;28;20391;-77
2021/10/04 03:14:58;;;;;;;2.63;0.57;;;14.40;60.10;;;;;;5029245;28;20018;-77
2021/10/04 03:17:24;;;;;;;1.52;0.40;;;14.30;60.20;;;;;;5033441;28;20397;-77
2021/10/04 03:19:51;;;;;;;1.73;0.55;;;14.30;60.10;;;;;;5038849;28;20021;-75
2021/10/04 03:22:17;;;;;;;0.45;0.30;;;14.30;60.30;;;;;;5035171;28;20148;-76
2021/10/04 03:24:44;;;;;;;3.90;0.40;;;14.30;60.10;;;;;;5032733;28;20021;-77
2021/10/04 03:27:11;;;;;;;3.05;0.40;;;14.30;60.10;;;;;;5033322;28;20453;-76
2021/10/04 03:29:37;;;;;;;1.55;0.45;;;14.30;59.80;;;;;;5034180;28;20052;-76
2021/10/04 03:32:04;;;;;;;5.05;0.25;;;14.30;59.60;;;;;;5030796;28;20105;-76
2021/10/04 03:34:30;;;;;;;2.53;0.77;;;14.30;59.30;;;;;;5035457;28;20021;-76
2021/10/04 03:36:59;;;;;;;5.32;0.50;;;14.30;59.30;;;;;;5034476;28;20017;-77
2021/10/04 03:39:25;;;;;;;1.83;0.43;;;14.30;59.30;;;;;;5037106;28;20550;-76
2021/10/04 03:41:52;;;;;;;1.45;0.40;;;14.30;59.30;;;;;;5042888;28;20040;-77
2021/10/04 03:44:19;;;;;;;1.70;0.68;;;14.40;59.50;;;;;;5037328;28;20075;-77
2021/10/04 03:46:45;;;;;;;5.65;0.60;;;14.30;59.40;;;;;;5038071;28;20079;-79
2021/10/04 03:49:11;;;;;;;2.20;0.22;;;14.30;59.70;;;;;;5037300;28;20397;-79
2021/10/04 03:51:38;;;;;;;24.35;17.83;;;14.30;59.90;;;;;;5039450;28;20021;-78
2021/10/04 03:54:04;;;;;;;16.38;12.55;;;14.30;60.40;;;;;;5040892;28;20041;-79
2021/10/04 03:56:31;;;;;;;7.88;1.63;;;14.40;60.40;;;;;;5038046;28;20092;-81
2021/10/04 03:58:58;;;;;;;2.00;0.60;;;14.40;60.60;;;;;;5037783;28;20114;-79
2021/10/04 04:01:24;;;;;;;3.65;0.63;;;14.30;60.90;;;;;;5035734;28;20551;-80
2021/10/04 04:03:52;;;;;;;2.35;0.68;;;14.30;61.20;;;;;;5039173;28;20006;-79
2021/10/04 04:06:19;;;;;;;2.47;0.55;;;14.20;61.50;;;;;;5036288;28;20090;-78
2021/10/04 04:08:46;;;;;;;1.08;0.40;;;14.20;61.80;;;;;;5033636;28;20117;-79
2021/10/04 04:11:13;;;;;;;3.78;1.00;;;14.20;62.00;;;;;;5034396;28;20376;-74
2021/10/04 04:13:39;;;;;;;9.82;5.82;;;14.20;62.00;;;;;;5035650;28;20851;-72
2021/10/04 04:16:06;;;;;;;23.85;15.68;;;14.10;62.00;;;;;;5035517;28;20357;-74
2021/10/04 04:18:33;;;;;;;3.67;1.55;;;14.10;62.00;;;;;;5037135;28;20031;-74
2021/10/04 04:21:00;;;;;;;5.97;2.95;;;14.10;61.80;;;;;;5037088;28;20126;-73
2021/10/04 04:23:26;;;;;;;3.35;0.93;;;14.10;61.90;;;;;;5037135;28;20021;-71
2021/10/04 04:25:53;;;;;;;1.08;0.80;;;14.10;62.20;;;;;;5038854;28;20017;-75
2021/10/04 04:28:20;;;;;;;3.85;0.60;;;14.10;62.00;;;;;;5034272;28;20668;-75
2021/10/04 04:30:47;;;;;;;16.48;11.25;;;14.10;62.20;;;;;;5036223;28;20064;-76
2021/10/04 04:33:13;;;;;;;5.63;3.40;;;14.20;62.30;;;;;;5036077;28;20032;-80
2021/10/04 04:35:40;;;;;;;4.00;0.70;;;14.20;62.10;;;;;;5037899;28;20459;-76
2021/10/04 04:38:06;;;;;;;1.83;0.70;;;14.20;62.10;;;;;;5038123;28;20032;-76
2021/10/04 04:40:33;;;;;;;2.45;0.65;;;14.20;62.20;;;;;;5039484;28;20142;-77
2021/10/04 04:42:59;;;;;;;2.55;0.77;;;14.10;62.30;;;;;;5037579;28;20112;-79
2021/10/04 04:45:26;;;;;;;2.25;0.65;;;14.20;62.40;;;;;;5034154;28;20434;-75
2021/10/04 04:47:53;;;;;;;7.18;1.30;;;14.10;62.50;;;;;;5035367;28;20079;-75
2021/10/04 04:50:20;;;;;;;5.30;1.10;;;14.20;64.70;;;;;;5039082;28;20480;-74
2021/10/04 04:52:47;;;;;;;6.10;1.17;;;14.20;64.60;;;;;;5036425;28;20028;-76
2021/10/04 04:55:14;;;;;;;7.65;0.98;;;14.30;64.50;;;;;;5035933;28;20020;-76
2021/10/04 04:57:40;;;;;;;4.00;1.02;;;14.20;63.40;;;;;;5036760;28;20064;-76
2021/10/04 05:00:11;;;;;;;9.02;1.73;;;14.30;63.30;;;;;;5037380;28;20059;-77
2021/10/04 05:02:37;;;;;;;1.55;0.60;;;14.20;63.50;;;;;;5030881;28;20032;-77
2021/10/04 05:05:08;;;;;;;4.60;0.75;;;14.20;63.80;;;;;;5034248;28;20465;-76
2021/10/04 05:07:35;;;;;;;0.80;0.40;;;14.20;63.80;;;;;;5037853;28;20496;-76
2021/10/04 05:10:03;;;;;;;8.95;1.75;;;14.20;63.90;;;;;;5036520;28;20066;-75
2021/10/04 05:12:29;;;;;;;1.48;0.80;;;14.20;64.10;;;;;;5033174;28;20025;-76
2021/10/04 05:14:56;;;;;;;0.93;0.60;;;14.30;63.90;;;;;;5034632;28;20025;-76
2021/10/04 05:17:22;;;;;;;12.07;2.83;;;14.30;63.80;;;;;;5037067;28;20021;-77
2021/10/04 05:19:49;;;;;;;6.22;0.88;;;14.30;63.60;;;;;;5032577;28;20096;-75
2021/10/04 05:22:15;;;;;;;4.28;0.60;;;14.30;63.30;;;;;;5043928;28;20514;-76
2021/10/04 05:24:42;;;;;;;1.10;0.57;;;14.30;63.20;;;;;;5032587;28;20056;-76
2021/10/04 05:27:08;;;;;;;3.38;1.15;;;14.30;63.10;;;;;;5032093;28;20048;-77
2021/10/04 05:29:35;;;;;;;1.30;0.88;;;14.40;63.20;;;;;;5033020;28;20552;-77
2021/10/04 05:32:01;;;;;;;1.77;0.40;;;14.40;63.10;;;;;;5031692;28;20021;-77
2021/10/04 05:34:28;;;;;;;2.25;0.60;;;14.40;62.90;;;;;;5037579;28;20051;-77
2021/10/04 05:37:34;;;;;;;3.53;0.70;;;14.40;62.90;;;;;;5029471;28;20014;-77
2021/10/04 05:40:40;;;;;;;4.22;0.80;;;14.40;62.50;;;;;;5036046;28;20053;-76
2021/10/04 05:43:46;;;;;;;5.38;0.80;;;14.40;62.30;;;;;;5033653;28;20389;-76
2021/10/04 05:46:52;;;;;;;2.33;0.98;;;14.40;62.40;;;;;;5032402;28;20473;-77
2021/10/04 05:49:58;;;;;;;1.63;0.98;;;14.40;62.10;;;;;;5034444;28;20017;-77
2021/10/04 05:53:04;;;;;;;1.67;1.38;;;14.40;62.20;;;;;;5033560;28;20102;-76
2021/10/04 05:56:10;;;;;;;1.98;1.25;;;14.50;62.10;;;;;;5029810;28;20385;-76
2021/10/04 05:59:16;;;;;;;4.18;1.50;;;14.50;62.20;;;;;;5033162;28;20048;-76
2021/10/04 06:02:23;;;;;;;10.55;1.88;;;14.60;61.40;;;;;;5035681;28;20078;-76
2021/10/04 06:05:29;;;;;;;1.23;0.63;;;14.60;61.20;;;;;;5034121;28;20095;-76
2021/10/04 06:08:35;;;;;;;3.10;1.02;;;14.60;61.00;;;;;;5048080;28;20496;-76
2021/10/04 06:11:42;;;;;;;3.08;0.68;;;14.70;60.80;;;;;;5031547;28;20070;-75
2021/10/04 06:14:49;;;;;;;1.10;0.60;;;14.70;61.00;;;;;;5033918;28;20045;-75
2021/10/04 06:17:55;;;;;;;5.28;0.70;;;14.70;61.10;;;;;;5028760;28;20594;-76
2021/10/04 06:21:01;;;;;;;1.70;0.70;;;14.80;60.90;;;;;;5033772;28;20099;-75
2021/10/04 06:24:07;;;;;;;7.60;0.70;;;14.90;60.80;;;;;;5034099;28;20415;-75
2021/10/04 06:27:13;;;;;;;4.60;1.20;;;14.90;60.80;;;;;;5039731;28;20033;-76
2021/10/04 06:30:19;;;;;;;1.95;0.70;;;15.00;60.20;;;;;;5033414;28;20139;-76
2021/10/04 06:33:25;;;;;;;2.25;0.77;;;15.10;60.10;;;;;;5030071;28;20022;-75
2021/10/04 06:36:31;;;;;;;5.80;0.70;;;15.10;59.60;;;;;;5032134;28;20022;-75
2021/10/04 06:39:37;;;;;;;6.28;1.00;;;15.20;59.20;;;;;;5044829;28;20018;-75
2021/10/04 06:42:44;;;;;;;2.20;1.00;;;15.30;58.60;;;;;;5029711;28;20433;-76
2021/10/04 06:45:50;;;;;;;6.05;0.70;;;15.30;58.50;;;;;;5034350;28;20776;-75
2021/10/04 06:48:56;;;;;;;8.15;1.10;;;15.40;57.10;;;;;;5030806;28;20033;-75
2021/10/04 06:52:02;;;;;;;4.88;0.63;;;15.60;56.40;;;;;;5031289;28;20458;-75
2021/10/04 06:55:08;;;;;;;3.20;0.85;;;15.60;56.00;;;;;;5032099;28;20024;-74
2021/10/04 06:58:14;;;;;;;4.18;0.90;;;15.70;56.10;;;;;;5031709;28;20026;-75
2021/10/04 07:01:20;;;;;;;4.60;0.60;;;15.70;55.90;;;;;;5034006;28;20383;-74
2021/10/04 07:04:26;;;;;;;3.22;0.60;;;15.80;54.50;;;;;;5032795;28;20021;-75
2021/10/04 07:06:53;;;;;;;2.85;0.70;;;15.90;53.80;;;;;;5032026;28;20489;-74
2021/10/04 07:09:19;;;;;;;8.23;1.20;;;15.90;54.20;;;;;;5036549;28;20048;-75
2021/10/04 07:11:46;;;;;;;3.80;0.55;;;16.00;54.50;;;;;;5034932;28;20059;-74
2021/10/04 07:14:12;;;;;;;2.60;0.68;;;16.00;53.40;;;;;;5036203;28;20879;-75
2021/10/04 07:16:39;;;;;;;1.02;0.90;;;16.10;53.60;;;;;;5033202;28;20385;-75
2021/10/04 07:19:05;;;;;;;4.57;0.60;;;16.20;53.40;;;;;;5034810;28;20048;-75
2021/10/04 07:21:33;;;;;;;4.18;0.80;;;16.20;53.80;;;;;;5040716;28;20029;-74
2021/10/04 07:23:59;;;;;;;1.25;0.35;;;16.30;54.10;;;;;;5036741;28;20389;-75
2021/10/04 07:27:06;;;;;;;3.22;0.82;;;16.30;54.30;;;;;;5036702;28;20025;-75
2021/10/04 07:30:12;;;;;;;3.17;0.50;;;16.40;53.80;;;;;;5035745;28;20403;-75
2021/10/04 07:33:18;;;;;;;3.08;1.17;;;16.40;53.10;;;;;;5037215;28;20017;-75
2021/10/04 07:36:24;;;;;;;5.88;0.73;;;16.50;52.20;;;;;;5035937;28;20029;-75
2021/10/04 07:39:30;;;;;;;5.93;0.60;;;16.60;52.80;;;;;;5035477;28;20044;-75
2021/10/04 07:42:36;;;;;;;2.53;0.90;;;16.70;52.60;;;;;;5035451;28;20433;-75
2021/10/04 07:45:42;;;;;;;4.60;0.63;;;16.80;51.70;;;;;;5036198;28;20361;-75
2021/10/04 07:48:48;;;;;;;4.03;0.50;;;16.90;51.20;;;;;;5039106;28;20491;-74
2021/10/04 07:51:54;;;;;;;1.42;0.60;;;17.00;50.30;;;;;;5035593;28;20108;-75
2021/10/04 07:55:00;;;;;;;4.93;1.58;;;17.10;50.60;;;;;;5035491;28;20021;-74
2021/10/04 07:58:06;;;;;;;1.50;0.60;;;17.10;50.90;;;;;;5036623;28;20035;-75
2021/10/04 08:01:13;;;;;;;2.13;0.77;;;17.20;51.20;;;;;;5034051;28;20501;-75
2021/10/04 08:04:19;;;;;;;7.93;0.77;;;17.30;50.50;;;;;;5038733;28;20021;-75
2021/10/04 08:07:25;;;;;;;3.42;0.98;;;17.40;49.70;;;;;;5037389;28;20014;-75
2021/10/04 08:10:31;;;;;;;2.55;0.60;;;17.50;48.60;;;;;;5035900;28;20107;-75
2021/10/04 08:13:38;;;;;;;3.85;0.65;;;17.60;47.60;;;;;;5035147;28;20415;-76
2021/10/04 08:16:45;;;;;;;1.90;0.52;;;17.70;46.50;;;;;;5035439;28;20013;-75
2021/10/04 08:19:51;;;;;;;4.63;1.23;;;17.80;46.40;;;;;;5036322;28;20170;-75
2021/10/04 08:22:57;;;;;;;1.55;0.95;;;17.90;47.20;;;;;;5034288;28;20047;-75
2021/10/04 08:26:03;;;;;;;6.85;1.20;;;18.00;47.00;;;;;;5034355;28;20431;-74
2021/10/04 08:29:09;;;;;;;2.13;1.13;;;18.10;47.20;;;;;;5033276;28;20591;-74
2021/10/04 08:32:15;;;;;;;7.95;1.40;;;18.20;46.00;;;;;;5033126;28;20006;-74
2021/10/04 08:35:21;;;;;;;5.45;0.93;;;18.30;45.20;;;;;;5033272;28;20014;-74
2021/10/04 08:38:27;;;;;;;5.32;0.68;;;18.40;44.90;;;;;;5034515;28;20041;-74
2021/10/04 08:41:34;;;;;;;0.95;0.82;;;18.50;44.50;;;;;;5037433;28;20033;-75
2021/10/04 08:44:40;;;;;;;2.90;0.65;;;18.60;43.90;;;;;;5032500;28;20025;-73
2021/10/04 08:47:47;;;;;;;3.85;0.50;;;18.70;43.00;;;;;;5032036;28;20033;-74
2021/10/04 08:50:55;;;;;;;8.30;1.05;;;18.80;42.10;;;;;;5033801;28;20026;-74
2021/10/04 08:54:01;;;;;;;2.10;0.70;;;18.90;41.60;;;;;;5033604;28;20087;-74
2021/10/04 08:57:08;;;;;;;4.43;0.77;;;19.00;43.40;;;;;;5034104;28;20024;-74
2021/10/04 09:00:14;;;;;;;4.20;0.80;;;19.10;43.30;;;;;;5032711;28;20034;-75
2021/10/04 09:03:20;;;;;;;2.78;0.70;;;19.20;42.70;;;;;;5033877;28;20029;-74
2021/10/04 09:06:26;;;;;;;2.58;0.60;;;19.30;42.30;;;;;;5033373;28;20024;-75
2021/10/04 09:09:35;;;;;;;2.13;0.52;;;19.40;41.80;;;;;;5032041;28;20037;-75
2021/10/04 09:12:41;;;;;;;5.28;0.70;;;19.50;41.90;;;;;;5042746;28;20021;-74
2021/10/04 09:15:29;;;;;;;1.35;0.47;;;19.60;41.60;;;;;;5034425;28;20017;-74
2021/10/04 09:18:15;;;;;;;2.20;0.60;;;19.60;41.50;;;;;;5032899;28;20126;-74
2021/10/04 09:21:20;;;;;;;2.88;0.85;;;19.80;41.50;;;;;;5034226;28;20459;-74
2021/10/04 09:24:26;;;;;;;3.90;0.82;;;19.80;41.20;;;;;;5032455;28;20456;-73
2021/10/04 09:27:41;;;;;;;3.28;0.45;;;19.90;41.40;;;;;;5039538;28;20048;-74
2021/10/04 09:30:54;;;;;;;2.28;0.35;;;20.00;41.30;;;;;;5032933;28;20087;-74
2021/10/04 09:33:59;;;;;;;1.15;0.40;;;20.10;40.60;;;;;;5032249;28;20032;-74
2021/10/04 09:37:05;;;;;;;2.20;0.82;;;20.30;40.60;;;;;;5033535;28;20021;-75
2021/10/04 09:40:14;;;;;;;3.03;1.10;;;20.40;41.00;;;;;;5032771;28;20072;-74
2021/10/04 09:43:20;;;;;;;4.00;1.35;;;20.40;41.20;;;;;;5034083;28;20036;-75
2021/10/04 09:46:26;;;;;;;4.25;0.70;;;20.60;40.40;;;;;;5032647;28;20441;-74
2021/10/04 09:49:42;;;;;;;2.60;0.50;;;20.70;40.30;;;;;;5035796;28;20022;-75
2021/10/04 09:52:37;;;;;;;4.53;0.93;;;20.90;39.20;;;;;;5033852;28;20024;-73
2021/10/04 09:55:52;;;;;;;4.70;0.50;;;21.00;39.00;;;;;;5036825;28;20044;-74
2021/10/04 09:59:01;;;;;;;0.82;0.57;;;21.10;38.80;;;;;;5031465;28;20055;-73
2021/10/04 10:02:22;;;;;;;2.47;0.70;;;21.20;39.20;;;;;;5033950;28;20103;-73
2021/10/04 10:05:28;;;;;;;3.25;0.70;;;21.20;39.50;;;;;;5033927;28;20018;-73
2021/10/04 10:08:35;;;;;;;5.20;0.60;;;21.30;39.80;;;;;;5035386;28;20085;-73
2021/10/04 10:11:44;;;;;;;1.55;0.60;;;21.40;39.30;;;;;;5033358;28;20105;-73
2021/10/04 10:14:39;;;;;;;2.05;0.50;;;21.50;39.00;;;;;;5034137;28;20029;-74
2021/10/04 10:17:48;;;;;;;1.25;0.22;;;21.60;39.00;;;;;;5030166;28;20369;-74
2021/10/04 10:20:57;;;;;;;5.43;0.68;;;21.80;38.60;;;;;;5031783;28;20072;-74
2021/10/04 10:23:43;;;;;;;3.15;0.60;;;21.80;38.30;;;;;;5030985;28;20557;-74
2021/10/04 10:26:31;;;;;;;1.27;0.60;;;21.90;38.20;;;;;;5032791;28;20020;-73
2021/10/04 10:29:09;;;;;;;10.25;0.90;;;22.00;37.80;;;;;;5031847;28;20044;-74
2021/10/04 10:31:55;;;;;;;4.15;0.50;;;22.10;37.30;;;;;;5033752;28;20026;-74
2021/10/04 10:34:31;;;;;;;5.30;0.73;;;22.10;36.30;;;;;;5032072;28;20040;-74
2021/10/04 10:37:07;;;;;;;0.85;0.40;;;22.20;36.90;;;;;;5049803;28;20527;-74
2021/10/04 10:40:01;;;;;;;3.40;0.50;;;22.20;37.30;;;;;;5031952;28;20558;-74
2021/10/04 10:42:47;;;;;;;4.43;0.38;;;22.30;37.00;;;;;;5037672;28;20029;-74
2021/10/04 10:45:57;;;;;;;4.45;0.50;;;22.40;36.70;;;;;;5036650;28;20033;-74
2021/10/04 10:49:03;;;;;;;2.03;0.80;;;22.50;36.50;;;;;;5034398;28;20026;-74
2021/10/04 10:51:49;;;;;;;;;;;22.60;36.60;;;;;;5036484;28;20052;-76
2021/10/04 10:54:57;;;;;;;2.63;1.15;;;22.70;36.40;;;;;;5035199;28;20376;-73
2021/10/04 10:57:58;;;;;;;1.95;0.50;;;22.80;36.50;;;;;;5034457;28;20036;-74
2021/10/04 11:00:45;;;;;;;2.28;0.50;;;22.90;35.90;;;;;;5038926;28;20049;-74
2021/10/04 11:03:40;;;;;;;1.00;0.50;;;23.00;36.00;;;;;;5035650;28;20392;-74
2021/10/04 11:06:58;;;;;;;2.08;0.55;;;23.00;36.20;;;;;;5036606;28;20061;-74
2021/10/04 11:10:22;;;;;;;2.35;0.68;;;23.10;35.80;;;;;;5039566;28;20029;-73
2021/10/04 11:13:07;;;;;;;1.70;0.70;;;23.20;35.90;;;;;;5035922;28;20013;-74
2021/10/04 11:16:13;;;;;;;3.00;0.90;;;23.20;35.40;;;;;;5037767;28;20034;-74
2021/10/04 11:19:22;;;;;;;0.77;0.60;;;23.30;36.10;;;;;;5033989;28;20024;-73
2021/10/04 11:22:28;;;;;;;3.03;0.70;;;23.40;35.80;;;;;;5037696;28;20570;-73
2021/10/04 11:25:37;;;;;;;3.28;0.73;;;23.40;35.30;;;;;;5032753;28;20026;-74
2021/10/04 11:28:24;;;;;;;0.63;0.60;;;23.50;33.80;;;;;;5040949;28;20035;-75
2021/10/04 11:31:36;;;;;;;2.95;0.85;;;23.60;34.70;;;;;;5035115;28;20017;-74
2021/10/04 11:34:45;;;;;;;1.23;0.38;;;23.70;34.40;;;;;;5035577;28;20396;-74
2021/10/04 11:37:51;;;;;;;0.70;0.35;;;23.80;34.80;;;;;;5033734;28;20377;-74
2021/10/04 11:40:57;;;;;;;0.85;0.30;;;23.80;34.10;;;;;;5036448;28;20036;-74
2021/10/04 11:44:03;;;;;;;2.28;1.02;;;23.90;35.00;;;;;;5037161;28;20096;-76
2021/10/04 11:47:12;;;;;;;2.67;1.20;;;23.90;35.30;;;;;;5035499;28;20095;-73
2021/10/04 11:50:24;;;;;;;1.90;0.50;;;24.00;35.90;;;;;;5035775;28;20029;-74
2021/10/04 11:53:30;;;;;;;5.50;0.60;;;24.10;36.50;;;;;;5036931;28;20024;-74
2021/10/04 11:56:39;;;;;;;0.68;0.40;;;24.10;35.30;;;;;;5033156;28;20044;-74
2021/10/04 11:59:46;;;;;;;1.83;0.73;;;24.10;35.10;;;;;;5049420;28;20444;-74
2021/10/04 12:03:01;;;;;;;1.00;0.50;;;24.20;35.10;;;;;;5034887;28;20041;-74
2021/10/04 12:06:07;;;;;;;2.63;0.55;;;24.10;34.70;;;;;;5037115;28;20123;-74
2021/10/04 12:08:56;;;;;;;;;;;24.20;35.10;;;;;;5034934;28;20029;-74
2021/10/04 12:12:08;;;;;;;2.03;0.52;;;24.20;35.10;;;;;;5033686;28;19913;-75
2021/10/04 12:15:14;;;;;;;0.93;0.20;;;24.20;34.80;;;;;;5035951;28;20116;-75
2021/10/04 12:18:20;;;;;;;0.30;0.30;;;24.30;29.50;;;;;;5034245;28;20507;-74
2021/10/04 12:21:15;;;;;;;2.17;0.50;;;24.30;30.00;;;;;;5035585;28;20494;-74
2021/10/04 12:24:24;;;;;;;1.52;0.95;;;24.40;31.60;;;;;;5034182;28;20025;-74
2021/10/04 12:27:31;;;;;;;4.30;0.50;;;24.40;34.10;;;;;;5035368;28;20036;-74
2021/10/04 12:30:00;;;;;;;5.20;1.10;;;24.40;31.70;;;;;;5034610;28;20025;-74
2021/10/04 12:32:39;;;;;;;0.80;0.68;;;24.50;30.90;;;;;;5034294;28;20079;-74
2021/10/04 12:35:11;;;;;;;1.70;0.65;;;24.50;32.80;;;;;;5036151;28;20518;-74
2021/10/04 12:37:45;;;;;;;4.90;1.00;;;24.50;34.00;;;;;;5048430;28;20116;-73
2021/10/04 12:40:31;;;;;;;2.42;0.90;;;24.50;34.80;;;;;;5036513;28;20028;-74
2021/10/04 12:43:03;;;;;;;1.40;0.88;;;24.50;34.90;;;;;;5035683;28;21011;-76
2021/10/04 12:45:29;;;;;;;0.55;0.50;;;24.50;34.80;;;;;;5034541;28;20136;-75
2021/10/04 12:48:03;;;;;;;13.45;1.50;;;24.60;35.30;;;;;;5032074;28;20013;-74
2021/10/04 12:50:39;;;;;;;2.30;0.75;;;24.60;34.40;;;;;;5035277;28;20484;-75
2021/10/04 12:53:15;;;;;;;1.27;0.60;;;24.60;34.50;;;;;;5032854;28;20021;-75
2021/10/04 12:56:24;;;;;;;1.95;0.60;;;24.70;34.00;;;;;;5033180;28;20017;-74
2021/10/04 12:59:04;;;;;;;3.30;0.60;;;24.60;32.40;;;;;;5032008;28;20148;-75
2021/10/04 13:02:10;;;;;;;1.20;1.10;;;24.60;33.50;;;;;;5030122;28;20520;-74
2021/10/04 13:05:19;;;;;;;1.73;0.47;;;24.50;34.20;;;;;;5032370;28;20104;-74
2021/10/04 13:08:25;;;;;;;2.15;0.57;;;24.50;34.10;;;;;;5031068;28;20014;-74
2021/10/04 13:11:31;;;;;;;0.93;0.45;;;24.40;34.30;;;;;;5029830;28;20462;-74
2021/10/04 13:14:37;;;;;;;3.45;1.80;;;24.50;34.10;;;;;;5029950;28;20020;-74
2021/10/04 13:17:43;;;;;;;2.83;0.38;;;24.50;34.30;;;;;;5030589;28;20032;-75
2021/10/04 13:20:29;;;;;;;;;;;24.40;34.60;;;;;;5034480;28;20032;-76
2021/10/04 13:23:35;;;;;;;1.48;0.35;;;24.40;34.90;;;;;;5030471;28;19909;-77
2021/10/04 13:26:41;;;;;;;0.22;0.20;;;24.40;32.60;;;;;;5032674;28;20029;-76
2021/10/04 13:29:48;;;;;;;4.70;0.60;;;24.40;31.20;;;;;;5033800;28;20041;-75
2021/10/04 13:32:54;;;;;;;1.35;0.60;;;24.40;34.10;;;;;;5030953;28;20029;-75
2021/10/04 13:35:39;;;;;;;;;;;24.40;34.20;;;;;;5035400;28;20022;-75
2021/10/04 13:38:46;;;;;;;1.23;0.38;;;24.40;34.70;;;;;;5033423;28;19905;-74
2021/10/04 13:41:31;;;;;;;;;;;24.40;34.20;;;;;;5031983;28;20038;-76
2021/10/04 13:44:37;;;;;;;2.50;0.75;;;24.40;33.40;;;;;;5031185;28;19917;-74
2021/10/04 13:47:43;;;;;;;1.58;0.50;;;24.40;34.10;;;;;;5029963;28;20066;-75
2021/10/04 13:50:50;;;;;;;3.42;0.93;;;24.40;34.20;;;;;;5034111;28;20025;-76
2021/10/04 13:53:56;;;;;;;3.95;0.80;;;24.30;34.60;;;;;;5037284;28;20086;-74
2021/10/04 13:56:41;;;;;;;;;;;24.30;35.10;;;;;;5049041;28;20032;-74
2021/10/04 13:59:48;;;;;;;3.15;0.85;;;24.20;35.20;;;;;;5030842;28;19996;-75
2021/10/04 14:02:54;;;;;;;2.10;1.00;;;24.20;35.10;;;;;;5028467;28;20350;-75
2021/10/04 14:06:00;;;;;;;5.40;0.88;;;24.20;35.20;;;;;;5035703;28;20024;-75
2021/10/04 14:08:47;;;;;;;;;;;24.10;35.10;;;;;;5031890;28;20033;-74
2021/10/04 14:11:56;;;;;;;2.58;0.95;;;24.10;35.30;;;;;;5034183;28;19916;-75
2021/10/04 14:15:02;;;;;;;3.45;0.80;;;24.10;34.30;;;;;;5032784;28;20105;-75
2021/10/04 14:18:09;;;;;;;1.30;0.50;;;24.10;34.70;;;;;;5030085;28;20499;-75
2021/10/04 14:20:53;;;;;;;5.40;0.75;;;24.10;34.10;;;;;;5030940;28;20033;-75
2021/10/04 14:23:20;;;;;;;3.03;0.80;;;24.00;34.70;;;;;;5035790;28;20377;-73